Time;durP1;ratioP1;P1;durP2;ratioP2;P2;SDS_P1;SDS_P2;PMS_P1;PMS_P2;Temp;Humidity;BMP_temperature;BMP_pressure;BME280_temperature;BME280_humidity;BME280_pressure;Samples;Min_cycle;Max_cycle;Signal;HPM_P1;HPM_P2
2022/12/11 00:00:01;;;;;;;3.7;3.5;;;;;;;0.7;100.0;100960;;;;
2022/12/11 00:01:07;;;;;;;3.7;3.5;;;;;;;0.7;100.0;100960;;;;
2022/12/11 00:02:00;;;;;;;3.7;3.5;;;;;;;0.7;100.0;100960;;;;
2022/12/11 00:03:00;;;;;;;3.7;3.5;;;;;;;0.8;100.0;100960;;;;
2022/12/11 00:04:00;;;;;;;3.7;3.5;;;;;;;0.8;100.0;100960;;;;
2022/12/11 00:05:00;;;;;;;3.7;3.5;;;;;;;0.8;100.0;100960;;;;
2022/12/11 00:06:03;;;;;;;3.7;3.5;;;;;;;0.8;100.0;100960;;;;
2022/12/11 00:07:00;;;;;;;3.7;3.5;;;;;;;0.8;100.0;100960;;;;
2022/12/11 00:08:00;;;;;;;4.4;4.3;;;;;;;0.8;100.0;100960;;;;
2022/12/11 00:09:00;;;;;;;4.4;4.3;;;;;;;0.8;100.0;100960;;;;
2022/12/11 00:10:00;;;;;;;4.4;4.3;;;;;;;0.8;100.0;100960;;;;
2022/12/11 00:11:00;;;;;;;4.4;4.3;;;;;;;0.9;100.0;100960;;;;
2022/12/11 00:12:01;;;;;;;4.4;4.3;;;;;;;0.9;100.0;100960;;;;
2022/12/11 00:13:00;;;;;;;4.4;4.3;;;;;;;0.7;100.0;100950;;;;
2022/12/11 00:14:00;;;;;;;4.4;4.3;;;;;;;0.7;100.0;100950;;;;
2022/12/11 00:15:00;;;;;;;4.4;4.3;;;;;;;0.6;100.0;100950;;;;
2022/12/11 00:16:00;;;;;;;4.4;4.3;;;;;;;0.6;100.0;100950;;;;
2022/12/11 00:17:00;;;;;;;4.4;4.3;;;;;;;0.7;100.0;100950;;;;
2022/12/11 00:18:00;;;;;;;4.4;4.3;;;;;;;0.7;100.0;100950;;;;
2022/12/11 00:19:00;;;;;;;4.4;4.3;;;;;;;0.7;100.0;100950;;;;
2022/12/11 00:20:00;;;;;;;4.4;4.3;;;;;;;0.7;100.0;100950;;;;
2022/12/11 00:21:01;;;;;;;4.4;4.3;;;;;;;0.7;100.0;100950;;;;
2022/12/11 00:22:00;;;;;;;4.4;4.3;;;;;;;0.7;100.0;100950;;;;
2022/12/11 00:23:01;;;;;;;4.4;4.3;;;;;;;0.6;100.0;100940;;;;
2022/12/11 00:24:00;;;;;;;4.4;4.3;;;;;;;0.6;100.0;100940;;;;
2022/12/11 00:25:00;;;;;;;4.4;4.3;;;;;;;0.7;100.0;100950;;;;
2022/12/11 00:26:03;;;;;;;4.4;4.3;;;;;;;0.7;100.0;100950;;;;
2022/12/11 00:27:00;;;;;;;4.4;4.3;;;;;;;0.8;100.0;100940;;;;
2022/12/11 00:28:00;;;;;;;3.4;3.3;;;;;;;0.8;100.0;100940;;;;
2022/12/11 00:29:00;;;;;;;3.4;3.3;;;;;;;0.8;100.0;100940;;;;
2022/12/11 00:30:00;;;;;;;3.4;3.3;;;;;;;0.8;100.0;100940;;;;
2022/12/11 00:31:04;;;;;;;3.4;3.3;;;;;;;0.8;100.0;100940;;;;
2022/12/11 00:32:00;;;;;;;3.4;3.3;;;;;;;0.8;100.0;100940;;;;
2022/12/11 00:33:00;;;;;;;3.4;3.3;;;;;;;0.7;100.0;100950;;;;
2022/12/11 00:34:01;;;;;;;3.4;3.3;;;;;;;0.7;100.0;100950;;;;
2022/12/11 00:35:01;;;;;;;3.4;3.3;;;;;;;0.8;100.0;100950;;;;
2022/12/11 00:36:00;;;;;;;3.4;3.3;;;;;;;0.8;100.0;100950;;;;
2022/12/11 00:37:00;;;;;;;3.4;3.3;;;;;;;0.9;100.0;100950;;;;
2022/12/11 00:38:00;;;;;;;3.4;3.3;;;;;;;0.9;100.0;100950;;;;
2022/12/11 00:39:01;;;;;;;3.4;3.3;;;;;;;0.9;100.0;100950;;;;
2022/12/11 00:40:00;;;;;;;3.4;3.3;;;;;;;0.9;100.0;100950;;;;
2022/12/11 00:41:00;;;;;;;3.4;3.3;;;;;;;0.9;100.0;100960;;;;
2022/12/11 00:42:00;;;;;;;3.4;3.3;;;;;;;0.9;100.0;100960;;;;
2022/12/11 00:43:00;;;;;;;3.4;3.3;;;;;;;0.8;100.0;100960;;;;
2022/12/11 00:44:01;;;;;;;3.4;3.3;;;;;;;0.8;100.0;100960;;;;
2022/12/11 00:45:00;;;;;;;3.4;3.3;;;;;;;0.8;100.0;100950;;;;
2022/12/11 00:46:01;;;;;;;3.4;3.3;;;;;;;0.8;100.0;100950;;;;
2022/12/11 00:47:00;;;;;;;3.4;3.3;;;;;;;0.9;100.0;100950;;;;
2022/12/11 00:48:00;;;;;;;3.3;3.2;;;;;;;0.9;100.0;100950;;;;
2022/12/11 00:49:00;;;;;;;3.3;3.2;;;;;;;0.9;100.0;100950;;;;
2022/12/11 00:50:00;;;;;;;3.3;3.2;;;;;;;0.9;100.0;100950;;;;
2022/12/11 00:51:00;;;;;;;3.3;3.2;;;;;;;0.8;100.0;100940;;;;
2022/12/11 00:52:00;;;;;;;3.3;3.2;;;;;;;0.8;100.0;100940;;;;
2022/12/11 00:53:01;;;;;;;3.3;3.2;;;;;;;0.8;100.0;100950;;;;
2022/12/11 00:54:00;;;;;;;3.3;3.2;;;;;;;0.8;100.0;100950;;;;
2022/12/11 00:55:00;;;;;;;3.3;3.2;;;;;;;0.9;100.0;100950;;;;
2022/12/11 00:56:00;;;;;;;3.3;3.2;;;;;;;0.9;100.0;100950;;;;
2022/12/11 00:57:00;;;;;;;3.3;3.2;;;;;;;0.9;100.0;100940;;;;
2022/12/11 00:58:00;;;;;;;3.3;3.2;;;;;;;0.9;100.0;100940;;;;
2022/12/11 00:59:00;;;;;;;3.3;3.2;;;;;;;0.8;100.0;100940;;;;
2022/12/11 01:00:00;;;;;;;3.3;3.2;;;;;;;0.8;100.0;100940;;;;
2022/12/11 01:01:04;;;;;;;3.3;3.2;;;;;;;0.8;100.0;100940;;;;
2022/12/11 01:02:00;;;;;;;3.3;3.2;;;;;;;0.8;100.0;100940;;;;
2022/12/11 01:03:01;;;;;;;3.3;3.2;;;;;;;0.8;100.0;100940;;;;
2022/12/11 01:04:00;;;;;;;3.3;3.2;;;;;;;0.8;100.0;100940;;;;
2022/12/11 01:05:00;;;;;;;3.3;3.2;;;;;;;0.8;100.0;100940;;;;
2022/12/11 01:06:00;;;;;;;3.3;3.2;;;;;;;0.8;100.0;100940;;;;
2022/12/11 01:07:00;;;;;;;3.3;3.2;;;;;;;0.8;100.0;100930;;;;
2022/12/11 01:08:01;;;;;;;3.2;3.1;;;;;;;0.8;100.0;100930;;;;
2022/12/11 01:11:03;;;;;;;3.2;3.1;;;;;;;0.8;100.0;100930;;;;
2022/12/11 01:12:00;;;;;;;3.2;3.1;;;;;;;0.8;100.0;100930;;;;
2022/12/11 01:13:03;;;;;;;3.2;3.1;;;;;;;0.9;100.0;100930;;;;
2022/12/11 01:14:00;;;;;;;3.2;3.1;;;;;;;0.9;100.0;100930;;;;
2022/12/11 01:15:00;;;;;;;3.2;3.1;;;;;;;0.9;100.0;100930;;;;
2022/12/11 01:16:05;;;;;;;3.2;3.1;;;;;;;0.9;100.0;100930;;;;
2022/12/11 01:17:00;;;;;;;3.2;3.1;;;;;;;0.9;100.0;100940;;;;
2022/12/11 01:18:00;;;;;;;3.2;3.1;;;;;;;0.9;100.0;100940;;;;
2022/12/11 01:19:00;;;;;;;3.2;3.1;;;;;;;0.8;100.0;100940;;;;
2022/12/11 01:20:00;;;;;;;3.2;3.1;;;;;;;0.8;100.0;100940;;;;
2022/12/11 01:21:04;;;;;;;3.2;3.1;;;;;;;0.8;100.0;100930;;;;
2022/12/11 01:22:00;;;;;;;3.2;3.1;;;;;;;0.8;100.0;100930;;;;
2022/12/11 01:23:00;;;;;;;3.2;3.1;;;;;;;0.8;100.0;100940;;;;
2022/12/11 01:24:00;;;;;;;3.2;3.1;;;;;;;0.8;100.0;100940;;;;
2022/12/11 01:25:00;;;;;;;3.2;3.1;;;;;;;0.8;100.0;100940;;;;
2022/12/11 01:26:09;;;;;;;3.2;3.1;;;;;;;0.8;100.0;100940;;;;
2022/12/11 01:27:01;;;;;;;3.2;3.1;;;;;;;0.8;100.0;100940;;;;
2022/12/11 01:28:00;;;;;;;3.2;3.1;;;;;;;0.8;100.0;100940;;;;
2022/12/11 01:29:00;;;;;;;3.2;3.1;;;;;;;0.8;100.0;100940;;;;
2022/12/11 01:30:00;;;;;;;3.2;3.1;;;;;;;0.8;100.0;100940;;;;
2022/12/11 01:31:00;;;;;;;3.2;3.1;;;;;;;0.8;100.0;100940;;;;
2022/12/11 01:32:00;;;;;;;3.2;3.1;;;;;;;0.8;100.0;100940;;;;
2022/12/11 01:33:00;;;;;;;3.2;3.1;;;;;;;0.9;100.0;100940;;;;
2022/12/11 01:34:00;;;;;;;3.2;3.1;;;;;;;0.9;100.0;100940;;;;
2022/12/11 01:35:03;;;;;;;3.2;3.1;;;;;;;0.9;100.0;100940;;;;
2022/12/11 01:36:00;;;;;;;3.2;3.1;;;;;;;0.9;100.0;100940;;;;
2022/12/11 01:37:00;;;;;;;3.2;3.1;;;;;;;1.0;100.0;100940;;;;
2022/12/11 01:38:00;;;;;;;3.2;3.1;;;;;;;1.0;100.0;100940;;;;
2022/12/11 01:39:00;;;;;;;3.2;3.1;;;;;;;0.8;100.0;100940;;;;
2022/12/11 01:40:01;;;;;;;3.2;3.1;;;;;;;0.8;100.0;100940;;;;
2022/12/11 01:41:00;;;;;;;3.2;3.1;;;;;;;0.8;100.0;100940;;;;
2022/12/11 01:42:00;;;;;;;3.2;3.1;;;;;;;0.8;100.0;100940;;;;
2022/12/11 01:43:00;;;;;;;3.2;3.1;;;;;;;0.9;100.0;100940;;;;
2022/12/11 01:44:01;;;;;;;3.2;3.1;;;;;;;0.9;100.0;100940;;;;
2022/12/11 01:45:11;;;;;;;3.2;3.1;;;;;;;0.9;100.0;100940;;;;
2022/12/11 01:46:01;;;;;;;3.2;3.1;;;;;;;0.9;100.0;100940;;;;
2022/12/11 01:47:00;;;;;;;3.2;3.1;;;;;;;0.8;100.0;100940;;;;
2022/12/11 01:48:05;;;;;;;3.6;3.5;;;;;;;0.8;100.0;100940;;;;
2022/12/11 01:49:02;;;;;;;3.6;3.5;;;;;;;0.8;100.0;100940;;;;
2022/12/11 01:50:00;;;;;;;3.6;3.5;;;;;;;0.8;100.0;100940;;;;
2022/12/11 01:51:03;;;;;;;3.6;3.5;;;;;;;0.8;100.0;100940;;;;
2022/12/11 01:52:03;;;;;;;3.6;3.5;;;;;;;0.8;100.0;100940;;;;
2022/12/11 01:53:01;;;;;;;3.6;3.5;;;;;;;0.8;100.0;100930;;;;
2022/12/11 01:54:04;;;;;;;3.6;3.5;;;;;;;0.8;100.0;100930;;;;
2022/12/11 01:55:01;;;;;;;3.6;3.5;;;;;;;0.8;100.0;100930;;;;
2022/12/11 01:56:01;;;;;;;3.6;3.5;;;;;;;0.8;100.0;100930;;;;
2022/12/11 01:57:03;;;;;;;3.6;3.5;;;;;;;0.9;100.0;100930;;;;
2022/12/11 01:58:01;;;;;;;3.6;3.5;;;;;;;0.9;100.0;100930;;;;
2022/12/11 01:59:05;;;;;;;3.6;3.5;;;;;;;0.8;100.0;100930;;;;
2022/12/11 02:00:00;;;;;;;3.6;3.5;;;;;;;0.8;100.0;100930;;;;
2022/12/11 02:01:01;;;;;;;3.6;3.5;;;;;;;0.8;100.0;100930;;;;
2022/12/11 02:02:05;;;;;;;3.6;3.5;;;;;;;0.8;100.0;100930;;;;
2022/12/11 02:03:00;;;;;;;3.6;3.5;;;;;;;0.7;100.0;100920;;;;
2022/12/11 02:04:01;;;;;;;3.6;3.5;;;;;;;0.7;100.0;100920;;;;
2022/12/11 02:05:01;;;;;;;3.6;3.5;;;;;;;0.9;100.0;100930;;;;
2022/12/11 02:06:01;;;;;;;3.6;3.5;;;;;;;0.9;100.0;100930;;;;
2022/12/11 02:07:02;;;;;;;3.6;3.5;;;;;;;0.9;100.0;100930;;;;
2022/12/11 02:08:02;;;;;;;3.0;2.9;;;;;;;0.9;100.0;100930;;;;
2022/12/11 02:09:01;;;;;;;3.0;2.9;;;;;;;1.0;100.0;100930;;;;
2022/12/11 02:10:00;;;;;;;3.0;2.9;;;;;;;1.0;100.0;100930;;;;
2022/12/11 02:11:04;;;;;;;3.0;2.9;;;;;;;0.9;100.0;100920;;;;
2022/12/11 02:12:02;;;;;;;3.0;2.9;;;;;;;0.9;100.0;100920;;;;
2022/12/11 02:13:06;;;;;;;3.0;2.9;;;;;;;0.9;100.0;100920;;;;
2022/12/11 02:14:05;;;;;;;3.0;2.9;;;;;;;0.9;100.0;100920;;;;
2022/12/11 02:15:09;;;;;;;3.0;2.9;;;;;;;0.9;100.0;100920;;;;
2022/12/11 02:16:10;;;;;;;3.0;2.9;;;;;;;0.9;100.0;100920;;;;
2022/12/11 02:17:06;;;;;;;3.0;2.9;;;;;;;1.0;100.0;100920;;;;
2022/12/11 02:18:10;;;;;;;3.0;2.9;;;;;;;1.0;100.0;100920;;;;
2022/12/11 02:19:06;;;;;;;3.0;2.9;;;;;;;1.0;100.0;100920;;;;
2022/12/11 02:20:08;;;;;;;3.0;2.9;;;;;;;1.0;100.0;100920;;;;
2022/12/11 02:21:09;;;;;;;3.0;2.9;;;;;;;1.0;100.0;100920;;;;
2022/12/11 02:22:05;;;;;;;3.0;2.9;;;;;;;1.0;100.0;100920;;;;
2022/12/11 02:23:04;;;;;;;3.0;2.9;;;;;;;0.9;100.0;100920;;;;
2022/12/11 02:24:01;;;;;;;3.0;2.9;;;;;;;0.9;100.0;100920;;;;
2022/12/11 02:25:11;;;;;;;3.0;2.9;;;;;;;1.0;100.0;100910;;;;
2022/12/11 02:26:03;;;;;;;3.0;2.9;;;;;;;1.0;100.0;100910;;;;
2022/12/11 02:27:00;;;;;;;3.0;2.9;;;;;;;1.0;100.0;100910;;;;
2022/12/11 02:28:04;;;;;;;3.1;3.0;;;;;;;1.0;100.0;100910;;;;
2022/12/11 02:29:04;;;;;;;3.1;3.0;;;;;;;0.9;100.0;100910;;;;
2022/12/11 02:30:01;;;;;;;3.1;3.0;;;;;;;0.9;100.0;100910;;;;
2022/12/11 02:31:03;;;;;;;3.1;3.0;;;;;;;1.1;100.0;100910;;;;
2022/12/11 02:32:03;;;;;;;3.1;3.0;;;;;;;1.1;100.0;100910;;;;
2022/12/11 02:33:00;;;;;;;3.1;3.0;;;;;;;1.0;100.0;100910;;;;
2022/12/11 02:34:00;;;;;;;3.1;3.0;;;;;;;1.0;100.0;100910;;;;
2022/12/11 02:35:04;;;;;;;3.1;3.0;;;;;;;1.0;100.0;100910;;;;
2022/12/11 02:36:02;;;;;;;3.1;3.0;;;;;;;1.0;100.0;100910;;;;
2022/12/11 02:37:02;;;;;;;3.1;3.0;;;;;;;0.9;100.0;100910;;;;
2022/12/11 02:38:04;;;;;;;3.1;3.0;;;;;;;0.9;100.0;100910;;;;
2022/12/11 02:39:02;;;;;;;3.1;3.0;;;;;;;1.0;100.0;100910;;;;
2022/12/11 02:40:02;;;;;;;3.1;3.0;;;;;;;1.0;100.0;100910;;;;
2022/12/11 02:41:01;;;;;;;3.1;3.0;;;;;;;1.0;100.0;100910;;;;
2022/12/11 02:42:02;;;;;;;3.1;3.0;;;;;;;1.0;100.0;100910;;;;
2022/12/11 02:43:02;;;;;;;3.1;3.0;;;;;;;1.0;100.0;100910;;;;
2022/12/11 02:44:01;;;;;;;3.1;3.0;;;;;;;1.0;100.0;100910;;;;
2022/12/11 02:45:01;;;;;;;3.1;3.0;;;;;;;0.9;100.0;100910;;;;
2022/12/11 02:46:03;;;;;;;3.1;3.0;;;;;;;0.9;100.0;100910;;;;
2022/12/11 02:47:02;;;;;;;3.5;3.4;;;;;;;1.0;100.0;100910;;;;
2022/12/11 02:48:01;;;;;;;3.5;3.4;;;;;;;1.0;100.0;100910;;;;
2022/12/11 02:49:01;;;;;;;3.5;3.4;;;;;;;0.9;100.0;100910;;;;
2022/12/11 02:50:02;;;;;;;3.5;3.4;;;;;;;0.9;100.0;100910;;;;
2022/12/11 02:51:01;;;;;;;3.5;3.4;;;;;;;1.0;100.0;100910;;;;
2022/12/11 02:52:02;;;;;;;3.5;3.4;;;;;;;1.0;100.0;100910;;;;
2022/12/11 02:53:02;;;;;;;3.5;3.4;;;;;;;1.0;100.0;100910;;;;
2022/12/11 02:54:01;;;;;;;3.5;3.4;;;;;;;1.0;100.0;100910;;;;
2022/12/11 02:55:01;;;;;;;3.5;3.4;;;;;;;1.1;100.0;100910;;;;
2022/12/11 02:56:05;;;;;;;3.5;3.4;;;;;;;1.1;100.0;100910;;;;
2022/12/11 02:57:10;;;;;;;3.5;3.4;;;;;;;1.0;100.0;100910;;;;
2022/12/11 02:58:03;;;;;;;3.5;3.4;;;;;;;1.0;100.0;100910;;;;
2022/12/11 02:59:06;;;;;;;3.5;3.4;;;;;;;1.0;100.0;100900;;;;
2022/12/11 03:00:00;;;;;;;3.5;3.4;;;;;;;1.0;100.0;100900;;;;
2022/12/11 03:01:00;;;;;;;3.5;3.4;;;;;;;1.0;100.0;100900;;;;
2022/12/11 03:02:01;;;;;;;3.5;3.4;;;;;;;1.0;100.0;100900;;;;
2022/12/11 03:03:00;;;;;;;3.5;3.4;;;;;;;1.0;100.0;100900;;;;
2022/12/11 03:04:00;;;;;;;3.5;3.4;;;;;;;1.0;100.0;100900;;;;
2022/12/11 03:05:00;;;;;;;3.5;3.4;;;;;;;1.0;100.0;100900;;;;
2022/12/11 03:06:00;;;;;;;3.5;3.4;;;;;;;1.0;100.0;100900;;;;
2022/12/11 03:07:10;;;;;;;4.1;4.0;;;;;;;1.0;100.0;100890;;;;
2022/12/11 03:08:01;;;;;;;4.1;4.0;;;;;;;1.0;100.0;100890;;;;
2022/12/11 03:09:00;;;;;;;4.1;4.0;;;;;;;1.1;100.0;100890;;;;
2022/12/11 03:10:00;;;;;;;4.1;4.0;;;;;;;1.1;100.0;100890;;;;
2022/12/11 03:11:00;;;;;;;4.1;4.0;;;;;;;1.1;100.0;100890;;;;
2022/12/11 03:12:00;;;;;;;4.1;4.0;;;;;;;1.1;100.0;100890;;;;
2022/12/11 03:13:01;;;;;;;4.1;4.0;;;;;;;1.1;100.0;100890;;;;
2022/12/11 03:14:02;;;;;;;4.1;4.0;;;;;;;1.1;100.0;100890;;;;
2022/12/11 03:15:02;;;;;;;4.1;4.0;;;;;;;1.1;100.0;100890;;;;
2022/12/11 03:16:10;;;;;;;4.1;4.0;;;;;;;1.1;100.0;100890;;;;
2022/12/11 03:17:01;;;;;;;4.1;4.0;;;;;;;1.1;100.0;100890;;;;
2022/12/11 03:18:10;;;;;;;4.1;4.0;;;;;;;1.1;100.0;100890;;;;
2022/12/11 03:19:08;;;;;;;4.1;4.0;;;;;;;1.1;100.0;100890;;;;
2022/12/11 03:20:00;;;;;;;4.1;4.0;;;;;;;1.1;100.0;100890;;;;
2022/12/11 03:21:10;;;;;;;4.1;4.0;;;;;;;1.1;100.0;100880;;;;
2022/12/11 03:22:08;;;;;;;4.1;4.0;;;;;;;1.1;100.0;100880;;;;
2022/12/11 03:23:05;;;;;;;4.1;4.0;;;;;;;1.1;100.0;100890;;;;
2022/12/11 03:24:03;;;;;;;4.1;4.0;;;;;;;1.1;100.0;100890;;;;
2022/12/11 03:25:03;;;;;;;4.1;4.0;;;;;;;1.1;100.0;100890;;;;
2022/12/11 03:26:03;;;;;;;4.1;4.0;;;;;;;1.1;100.0;100890;;;;
2022/12/11 03:27:11;;;;;;;3.3;3.2;;;;;;;1.1;100.0;100880;;;;
2022/12/11 03:28:08;;;;;;;3.3;3.2;;;;;;;1.1;100.0;100880;;;;
2022/12/11 03:29:03;;;;;;;3.3;3.2;;;;;;;1.1;100.0;100880;;;;
2022/12/11 03:30:06;;;;;;;3.3;3.2;;;;;;;1.1;100.0;100880;;;;
2022/12/11 03:31:04;;;;;;;3.3;3.2;;;;;;;1.0;100.0;100880;;;;
2022/12/11 03:32:05;;;;;;;3.3;3.2;;;;;;;1.0;100.0;100880;;;;
2022/12/11 03:33:03;;;;;;;3.3;3.2;;;;;;;1.1;100.0;100880;;;;
2022/12/11 03:34:06;;;;;;;3.3;3.2;;;;;;;1.1;100.0;100880;;;;
2022/12/11 03:35:06;;;;;;;3.3;3.2;;;;;;;1.1;100.0;100880;;;;
2022/12/11 03:36:04;;;;;;;3.3;3.2;;;;;;;1.1;100.0;100880;;;;
2022/12/11 03:37:02;;;;;;;3.3;3.2;;;;;;;1.1;100.0;100880;;;;
2022/12/11 03:38:04;;;;;;;3.3;3.2;;;;;;;1.1;100.0;100880;;;;
2022/12/11 03:39:02;;;;;;;3.3;3.2;;;;;;;1.0;100.0;100870;;;;
2022/12/11 03:40:03;;;;;;;3.3;3.2;;;;;;;1.0;100.0;100870;;;;
2022/12/11 03:41:03;;;;;;;3.3;3.2;;;;;;;1.0;100.0;100870;;;;
2022/12/11 03:42:02;;;;;;;3.3;3.2;;;;;;;1.0;100.0;100870;;;;
2022/12/11 03:43:01;;;;;;;3.3;3.2;;;;;;;1.0;100.0;100870;;;;
2022/12/11 03:44:00;;;;;;;3.3;3.2;;;;;;;1.0;100.0;100870;;;;
2022/12/11 03:45:02;;;;;;;3.3;3.2;;;;;;;1.1;100.0;100880;;;;
2022/12/11 03:46:01;;;;;;;3.3;3.2;;;;;;;1.1;100.0;100880;;;;
2022/12/11 03:47:02;;;;;;;3.0;2.9;;;;;;;1.2;100.0;100880;;;;
2022/12/11 03:48:01;;;;;;;3.0;2.9;;;;;;;1.2;100.0;100880;;;;
2022/12/11 03:49:02;;;;;;;3.0;2.9;;;;;;;1.2;100.0;100880;;;;
2022/12/11 03:50:01;;;;;;;3.0;2.9;;;;;;;1.2;100.0;100880;;;;
2022/12/11 03:51:03;;;;;;;3.0;2.9;;;;;;;1.1;100.0;100880;;;;
2022/12/11 03:52:01;;;;;;;3.0;2.9;;;;;;;1.1;100.0;100880;;;;
2022/12/11 03:53:02;;;;;;;3.0;2.9;;;;;;;1.1;100.0;100880;;;;
2022/12/11 03:54:01;;;;;;;3.0;2.9;;;;;;;1.1;100.0;100880;;;;
2022/12/11 03:55:02;;;;;;;3.0;2.9;;;;;;;1.1;100.0;100880;;;;
2022/12/11 03:56:02;;;;;;;3.0;2.9;;;;;;;1.1;100.0;100880;;;;
2022/12/11 03:57:03;;;;;;;3.0;2.9;;;;;;;1.1;100.0;100880;;;;
2022/12/11 03:58:00;;;;;;;3.0;2.9;;;;;;;1.1;100.0;100880;;;;
2022/12/11 03:59:00;;;;;;;3.0;2.9;;;;;;;1.1;100.0;100880;;;;
2022/12/11 04:00:03;;;;;;;3.0;2.9;;;;;;;1.1;100.0;100880;;;;
2022/12/11 04:01:00;;;;;;;3.0;2.9;;;;;;;1.1;100.0;100880;;;;
2022/12/11 04:02:00;;;;;;;3.0;2.9;;;;;;;1.1;100.0;100880;;;;
2022/12/11 04:04:00;;;;;;;3.0;2.9;;;;;;;1.1;100.0;100870;;;;
2022/12/11 04:05:00;;;;;;;3.0;2.9;;;;;;;1.2;100.0;100870;;;;
2022/12/11 04:06:00;;;;;;;3.0;2.9;;;;;;;1.2;100.0;100870;;;;
2022/12/11 04:07:00;;;;;;;3.3;3.2;;;;;;;1.1;100.0;100870;;;;
2022/12/11 04:08:00;;;;;;;3.3;3.2;;;;;;;1.1;100.0;100870;;;;
2022/12/11 04:09:00;;;;;;;3.3;3.2;;;;;;;1.1;100.0;100870;;;;
2022/12/11 04:10:01;;;;;;;3.3;3.2;;;;;;;1.1;100.0;100870;;;;
2022/12/11 04:12:00;;;;;;;3.3;3.2;;;;;;;1.2;100.0;100870;;;;
2022/12/11 04:13:00;;;;;;;3.3;3.2;;;;;;;1.0;100.0;100870;;;;
2022/12/11 04:15:00;;;;;;;3.3;3.2;;;;;;;1.1;100.0;100860;;;;
2022/12/11 04:16:00;;;;;;;3.3;3.2;;;;;;;1.1;100.0;100860;;;;
2022/12/11 04:17:00;;;;;;;3.3;3.2;;;;;;;1.0;100.0;100860;;;;
2022/12/11 04:25:01;;;;;;;3.3;3.2;;;;;;;1.1;100.0;100860;;;;
2022/12/11 04:26:09;;;;;;;3.3;3.2;;;;;;;1.1;100.0;100860;;;;
2022/12/11 04:27:00;;;;;;;3.6;3.5;;;;;;;1.1;100.0;100860;;;;
2022/12/11 04:28:00;;;;;;;3.6;3.5;;;;;;;1.1;100.0;100860;;;;
2022/12/11 04:29:00;;;;;;;3.6;3.5;;;;;;;1.1;100.0;100870;;;;
2022/12/11 04:30:01;;;;;;;3.6;3.5;;;;;;;1.1;100.0;100870;;;;
2022/12/11 04:31:00;;;;;;;3.6;3.5;;;;;;;1.0;100.0;100860;;;;
2022/12/11 04:32:00;;;;;;;3.6;3.5;;;;;;;1.0;100.0;100860;;;;
2022/12/11 04:33:00;;;;;;;3.6;3.5;;;;;;;1.1;100.0;100860;;;;
2022/12/11 04:34:00;;;;;;;3.6;3.5;;;;;;;1.1;100.0;100860;;;;
2022/12/11 04:35:00;;;;;;;3.6;3.5;;;;;;;1.1;100.0;100860;;;;
2022/12/11 04:36:00;;;;;;;3.6;3.5;;;;;;;1.1;100.0;100860;;;;
2022/12/11 04:37:00;;;;;;;3.6;3.5;;;;;;;1.0;100.0;100860;;;;
2022/12/11 04:38:00;;;;;;;3.6;3.5;;;;;;;1.0;100.0;100860;;;;
2022/12/11 04:39:00;;;;;;;3.6;3.5;;;;;;;1.0;100.0;100860;;;;
2022/12/11 04:40:00;;;;;;;3.6;3.5;;;;;;;1.0;100.0;100860;;;;
2022/12/11 04:41:02;;;;;;;3.6;3.5;;;;;;;1.0;100.0;100860;;;;
2022/12/11 04:42:00;;;;;;;3.6;3.5;;;;;;;1.0;100.0;100860;;;;
2022/12/11 04:43:00;;;;;;;3.6;3.5;;;;;;;1.0;100.0;100860;;;;
2022/12/11 04:44:00;;;;;;;3.6;3.5;;;;;;;1.0;100.0;100860;;;;
2022/12/11 04:45:00;;;;;;;3.6;3.5;;;;;;;0.9;100.0;100860;;;;
2022/12/11 04:46:02;;;;;;;3.6;3.5;;;;;;;0.9;100.0;100860;;;;
2022/12/11 04:47:00;;;;;;;3.4;3.3;;;;;;;0.9;100.0;100850;;;;
2022/12/11 04:48:00;;;;;;;3.4;3.3;;;;;;;0.9;100.0;100850;;;;
2022/12/11 04:49:00;;;;;;;3.4;3.3;;;;;;;0.9;100.0;100860;;;;
2022/12/11 04:50:01;;;;;;;3.4;3.3;;;;;;;0.9;100.0;100860;;;;
2022/12/11 04:51:00;;;;;;;3.4;3.3;;;;;;;1.0;100.0;100860;;;;
2022/12/11 04:52:01;;;;;;;3.4;3.3;;;;;;;1.0;100.0;100860;;;;
2022/12/11 04:53:00;;;;;;;3.4;3.3;;;;;;;1.0;100.0;100860;;;;
2022/12/11 04:54:00;;;;;;;3.4;3.3;;;;;;;1.0;100.0;100860;;;;
2022/12/11 04:55:01;;;;;;;3.4;3.3;;;;;;;0.9;100.0;100860;;;;
2022/12/11 04:56:01;;;;;;;3.4;3.3;;;;;;;0.9;100.0;100860;;;;
2022/12/11 04:57:00;;;;;;;3.4;3.3;;;;;;;0.9;100.0;100860;;;;
2022/12/11 04:58:00;;;;;;;3.4;3.3;;;;;;;0.9;100.0;100860;;;;
2022/12/11 04:59:00;;;;;;;3.4;3.3;;;;;;;0.9;100.0;100860;;;;
2022/12/11 05:00:01;;;;;;;3.4;3.3;;;;;;;0.9;100.0;100860;;;;
2022/12/11 05:01:05;;;;;;;3.4;3.3;;;;;;;1.0;100.0;100860;;;;
2022/12/11 05:02:00;;;;;;;3.4;3.3;;;;;;;1.0;100.0;100860;;;;
2022/12/11 05:03:00;;;;;;;3.4;3.3;;;;;;;0.9;100.0;100860;;;;
2022/12/11 05:04:00;;;;;;;3.4;3.3;;;;;;;0.9;100.0;100860;;;;
2022/12/11 05:05:02;;;;;;;3.4;3.3;;;;;;;0.9;100.0;100860;;;;
2022/12/11 05:06:00;;;;;;;3.4;3.3;;;;;;;0.9;100.0;100860;;;;
2022/12/11 05:07:00;;;;;;;3.3;3.2;;;;;;;0.9;100.0;100860;;;;
2022/12/11 05:08:00;;;;;;;3.3;3.2;;;;;;;0.9;100.0;100860;;;;
2022/12/11 05:09:00;;;;;;;3.3;3.2;;;;;;;0.9;100.0;100860;;;;
2022/12/11 05:10:00;;;;;;;3.3;3.2;;;;;;;0.9;100.0;100860;;;;
2022/12/11 05:11:02;;;;;;;3.3;3.2;;;;;;;0.9;100.0;100860;;;;
2022/12/11 05:12:01;;;;;;;3.3;3.2;;;;;;;0.9;100.0;100860;;;;
2022/12/11 05:13:00;;;;;;;3.3;3.2;;;;;;;0.9;100.0;100870;;;;
2022/12/11 05:14:00;;;;;;;3.3;3.2;;;;;;;0.9;100.0;100870;;;;
2022/12/11 05:15:00;;;;;;;3.3;3.2;;;;;;;0.9;100.0;100870;;;;
2022/12/11 05:16:03;;;;;;;3.3;3.2;;;;;;;0.9;100.0;100870;;;;
2022/12/11 05:17:00;;;;;;;3.3;3.2;;;;;;;0.9;100.0;100870;;;;
2022/12/11 05:18:00;;;;;;;3.3;3.2;;;;;;;0.9;100.0;100870;;;;
2022/12/11 05:19:00;;;;;;;3.3;3.2;;;;;;;0.9;100.0;100870;;;;
2022/12/11 05:20:00;;;;;;;3.3;3.2;;;;;;;0.9;100.0;100870;;;;
2022/12/11 05:21:01;;;;;;;3.3;3.2;;;;;;;0.9;100.0;100860;;;;
2022/12/11 05:22:00;;;;;;;3.3;3.2;;;;;;;0.9;100.0;100860;;;;
2022/12/11 05:23:00;;;;;;;3.3;3.2;;;;;;;0.9;100.0;100870;;;;
2022/12/11 05:24:00;;;;;;;3.3;3.2;;;;;;;0.9;100.0;100870;;;;
2022/12/11 05:25:00;;;;;;;3.3;3.2;;;;;;;0.9;100.0;100870;;;;
2022/12/11 05:26:02;;;;;;;3.3;3.2;;;;;;;0.9;100.0;100870;;;;
2022/12/11 05:27:00;;;;;;;3.2;3.1;;;;;;;1.0;100.0;100870;;;;
2022/12/11 05:28:00;;;;;;;3.2;3.1;;;;;;;1.0;100.0;100870;;;;
2022/12/11 05:29:00;;;;;;;3.2;3.1;;;;;;;1.0;100.0;100860;;;;
2022/12/11 05:30:00;;;;;;;3.2;3.1;;;;;;;1.0;100.0;100860;;;;
2022/12/11 05:31:02;;;;;;;3.2;3.1;;;;;;;1.0;100.0;100850;;;;
2022/12/11 05:32:00;;;;;;;3.2;3.1;;;;;;;1.0;100.0;100850;;;;
2022/12/11 05:33:00;;;;;;;3.2;3.1;;;;;;;1.0;100.0;100850;;;;
2022/12/11 05:34:00;;;;;;;3.2;3.1;;;;;;;1.0;100.0;100850;;;;
2022/12/11 05:35:00;;;;;;;3.2;3.1;;;;;;;1.0;100.0;100850;;;;
2022/12/11 05:36:00;;;;;;;3.2;3.1;;;;;;;1.0;100.0;100850;;;;
2022/12/11 05:37:01;;;;;;;3.2;3.1;;;;;;;0.9;100.0;100850;;;;
2022/12/11 05:38:00;;;;;;;3.2;3.1;;;;;;;0.9;100.0;100850;;;;
2022/12/11 05:39:01;;;;;;;3.2;3.1;;;;;;;0.9;100.0;100850;;;;
2022/12/11 05:40:01;;;;;;;3.2;3.1;;;;;;;0.9;100.0;100850;;;;
2022/12/11 05:41:02;;;;;;;3.2;3.1;;;;;;;0.9;100.0;100840;;;;
2022/12/11 05:42:00;;;;;;;3.2;3.1;;;;;;;0.9;100.0;100840;;;;
2022/12/11 05:43:00;;;;;;;3.2;3.1;;;;;;;0.9;100.0;100840;;;;
2022/12/11 05:44:00;;;;;;;3.2;3.1;;;;;;;0.9;100.0;100840;;;;
2022/12/11 05:45:00;;;;;;;3.2;3.1;;;;;;;0.9;100.0;100840;;;;
2022/12/11 05:46:07;;;;;;;3.1;3.0;;;;;;;0.9;100.0;100840;;;;
2022/12/11 05:47:00;;;;;;;3.1;3.0;;;;;;;0.9;100.0;100830;;;;
2022/12/11 05:48:00;;;;;;;3.1;3.0;;;;;;;0.9;100.0;100830;;;;
2022/12/11 05:49:01;;;;;;;3.1;3.0;;;;;;;1.0;100.0;100830;;;;
2022/12/11 05:50:00;;;;;;;3.1;3.0;;;;;;;1.0;100.0;100830;;;;
2022/12/11 05:51:01;;;;;;;3.1;3.0;;;;;;;1.0;100.0;100830;;;;
2022/12/11 05:52:00;;;;;;;3.1;3.0;;;;;;;1.0;100.0;100830;;;;
2022/12/11 05:53:01;;;;;;;3.1;3.0;;;;;;;1.0;100.0;100840;;;;
2022/12/11 05:54:01;;;;;;;3.1;3.0;;;;;;;1.0;100.0;100840;;;;
2022/12/11 05:55:00;;;;;;;3.1;3.0;;;;;;;1.0;100.0;100840;;;;
2022/12/11 05:56:01;;;;;;;3.1;3.0;;;;;;;1.0;100.0;100840;;;;
2022/12/11 05:57:00;;;;;;;3.1;3.0;;;;;;;1.0;100.0;100840;;;;
2022/12/11 05:58:00;;;;;;;3.1;3.0;;;;;;;1.0;100.0;100840;;;;
2022/12/11 05:59:01;;;;;;;3.1;3.0;;;;;;;0.9;100.0;100840;;;;
2022/12/11 06:00:00;;;;;;;3.1;3.0;;;;;;;0.9;100.0;100840;;;;
2022/12/11 06:01:01;;;;;;;3.1;3.0;;;;;;;0.9;100.0;100840;;;;
2022/12/11 06:02:00;;;;;;;3.1;3.0;;;;;;;0.9;100.0;100840;;;;
2022/12/11 06:03:00;;;;;;;3.1;3.0;;;;;;;0.9;100.0;100840;;;;
2022/12/11 06:04:01;;;;;;;3.1;3.0;;;;;;;0.9;100.0;100840;;;;
2022/12/11 06:05:00;;;;;;;3.1;3.0;;;;;;;1.1;100.0;100840;;;;
2022/12/11 06:06:01;;;;;;;3.1;3.0;;;;;;;1.1;100.0;100840;;;;
2022/12/11 06:07:00;;;;;;;3.1;3.0;;;;;;;1.1;100.0;100840;;;;
2022/12/11 06:08:00;;;;;;;3.1;3.0;;;;;;;1.1;100.0;100840;;;;
2022/12/11 06:09:00;;;;;;;3.1;3.0;;;;;;;1.1;100.0;100850;;;;
2022/12/11 06:10:00;;;;;;;3.1;3.0;;;;;;;1.1;100.0;100850;;;;
2022/12/11 06:11:00;;;;;;;3.1;3.0;;;;;;;1.0;100.0;100850;;;;
2022/12/11 06:12:00;;;;;;;3.1;3.0;;;;;;;1.0;100.0;100850;;;;
2022/12/11 06:13:00;;;;;;;3.1;3.0;;;;;;;1.0;100.0;100850;;;;
2022/12/11 06:14:01;;;;;;;3.1;3.0;;;;;;;1.0;100.0;100850;;;;
2022/12/11 06:15:00;;;;;;;3.1;3.0;;;;;;;1.0;100.0;100850;;;;
2022/12/11 06:16:01;;;;;;;3.1;3.0;;;;;;;1.0;100.0;100850;;;;
2022/12/11 06:17:00;;;;;;;3.1;3.0;;;;;;;1.1;100.0;100850;;;;
2022/12/11 06:18:00;;;;;;;3.1;3.0;;;;;;;1.1;100.0;100850;;;;
2022/12/11 06:19:00;;;;;;;3.1;3.0;;;;;;;1.0;100.0;100850;;;;
2022/12/11 06:20:00;;;;;;;3.1;3.0;;;;;;;1.0;100.0;100850;;;;
2022/12/11 06:21:00;;;;;;;3.1;3.0;;;;;;;1.0;100.0;100850;;;;
2022/12/11 06:22:00;;;;;;;3.1;3.0;;;;;;;1.0;100.0;100850;;;;
2022/12/11 06:23:00;;;;;;;3.1;3.0;;;;;;;1.0;100.0;100850;;;;
2022/12/11 06:24:01;;;;;;;3.1;3.0;;;;;;;1.0;100.0;100850;;;;
2022/12/11 06:25:00;;;;;;;3.1;3.0;;;;;;;1.0;100.0;100850;;;;
2022/12/11 06:26:02;;;;;;;3.2;3.1;;;;;;;1.0;100.0;100850;;;;
2022/12/11 06:27:00;;;;;;;3.2;3.1;;;;;;;0.9;100.0;100850;;;;
2022/12/11 06:28:00;;;;;;;3.2;3.1;;;;;;;0.9;100.0;100850;;;;
2022/12/11 06:29:00;;;;;;;3.2;3.1;;;;;;;1.0;100.0;100850;;;;
2022/12/11 06:30:00;;;;;;;3.2;3.1;;;;;;;1.0;100.0;100850;;;;
2022/12/11 06:31:01;;;;;;;3.2;3.1;;;;;;;0.9;100.0;100840;;;;
2022/12/11 06:32:00;;;;;;;3.2;3.1;;;;;;;0.9;100.0;100840;;;;
2022/12/11 06:33:00;;;;;;;3.2;3.1;;;;;;;1.0;100.0;100840;;;;
2022/12/11 06:34:00;;;;;;;3.2;3.1;;;;;;;1.0;100.0;100840;;;;
2022/12/11 06:35:00;;;;;;;3.2;3.1;;;;;;;1.0;100.0;100840;;;;
2022/12/11 06:36:01;;;;;;;3.2;3.1;;;;;;;1.0;100.0;100840;;;;
2022/12/11 06:37:00;;;;;;;3.2;3.1;;;;;;;0.9;100.0;100850;;;;
2022/12/11 06:38:00;;;;;;;3.2;3.1;;;;;;;0.9;100.0;100850;;;;
2022/12/11 06:39:00;;;;;;;3.2;3.1;;;;;;;0.9;100.0;100850;;;;
2022/12/11 06:40:01;;;;;;;3.2;3.1;;;;;;;0.9;100.0;100850;;;;
2022/12/11 06:41:03;;;;;;;3.2;3.1;;;;;;;0.9;100.0;100850;;;;